ICE53K BIAR-BIKF
Flight info
| Callsign | ICE53K |
|---|---|
| Flight time | 0h 34m |
| Altitude | 24000 |
| Route | DEVUD DEVUD5N |
| Aircraft | B38M/M-SDE1FGHILORVWXY/HB1 |
Departure
| Time | 2026-05-07 16:38 |
|---|---|
| Airport | Akureyri International Airport (BIAR) |
Arrival
| Time | 2026-05-07 17:13 |
|---|---|
| Airport | Keflavik International Airport (BIKF) |
| Time | Latitude | Longitude | Altitude | Speed | Heading |
|---|---|---|---|---|---|
| 2026-05-07 16:19 | 65.65411 | -18.07492 | 20 ft | 0 kts | 25° |
| 2026-05-07 16:32 | 65.65413 | -18.07489 | 20 ft | 1 kts | 24° |
| 2026-05-07 16:33 | 65.65427 | -18.07472 | 21 ft | 3 kts | 29° |
| 2026-05-07 16:33 | 65.65457 | -18.07428 | 20 ft | 5 kts | 41° |
| 2026-05-07 16:33 | 65.65470 | -18.07369 | 20 ft | 2 kts | 64° |
| 2026-05-07 16:33 | 65.65477 | -18.07316 | 21 ft | 4 kts | 83° |
| 2026-05-07 16:34 | 65.65471 | -18.07196 | 20 ft | 11 kts | 133° |
| 2026-05-07 16:34 | 65.65351 | -18.07150 | 18 ft | 23 kts | 177° |
| 2026-05-07 16:34 | 65.65149 | -18.07098 | 20 ft | 34 kts | 174° |
| 2026-05-07 16:34 | 65.64923 | -18.07051 | 23 ft | 36 kts | 175° |
| 2026-05-07 16:35 | 65.64661 | -18.07007 | 17 ft | 35 kts | 185° |
| 2026-05-07 16:35 | 65.64507 | -18.06956 | 19 ft | 14 kts | 152° |
| 2026-05-07 16:35 | 65.64461 | -18.06969 | 21 ft | 3 kts | 256° |
| 2026-05-07 16:35 | 65.64471 | -18.06982 | 22 ft | 4 kts | 345° |
| 2026-05-07 16:36 | 65.64524 | -18.06987 | 19 ft | 4 kts | 352° |
| 2026-05-07 16:36 | 65.64601 | -18.07004 | 17 ft | 18 kts | 354° |
| 2026-05-07 16:36 | 65.64663 | -18.07019 | 17 ft | 6 kts | 354° |
| 2026-05-07 16:36 | 65.64664 | -18.07019 | 17 ft | 0 kts | 354° |
| 2026-05-07 16:37 | 65.64927 | -18.07065 | 23 ft | 81 kts | 354° |
| 2026-05-07 16:38 | 65.65754 | -18.07218 | 36 ft | 152 kts | 356° |
| 2026-05-07 16:38 | 65.66809 | -18.07450 | 435 ft | 147 kts | 353° |
| 2026-05-07 16:38 | 65.67870 | -18.07463 | 747 ft | 158 kts | 1° |
| 2026-05-07 16:38 | 65.69016 | -18.07365 | 1273 ft | 172 kts | 359° |
| 2026-05-07 16:39 | 65.70297 | -18.07341 | 1805 ft | 192 kts | 358° |
| 2026-05-07 16:39 | 65.71699 | -18.07320 | 2387 ft | 210 kts | 358° |
| 2026-05-07 16:39 | 65.73225 | -18.07319 | 2911 ft | 229 kts | 357° |
| 2026-05-07 16:39 | 65.74721 | -18.08635 | 3376 ft | 237 kts | 320° |
| 2026-05-07 16:40 | 65.75515 | -18.12124 | 3950 ft | 245 kts | 279° |
| 2026-05-07 16:40 | 65.75402 | -18.16327 | 4688 ft | 256 kts | 265° |
| 2026-05-07 16:40 | 65.75076 | -18.20761 | 5730 ft | 262 kts | 247° |
| 2026-05-07 16:40 | 65.73921 | -18.24291 | 6750 ft | 273 kts | 223° |
| 2026-05-07 16:41 | 65.72513 | -18.27621 | 7346 ft | 292 kts | 226° |
| 2026-05-07 16:41 | 65.71069 | -18.31290 | 8037 ft | 308 kts | 227° |
| 2026-05-07 16:41 | 65.69577 | -18.35130 | 8921 ft | 314 kts | 227° |
| 2026-05-07 16:41 | 65.68072 | -18.39031 | 9905 ft | 319 kts | 227° |
| 2026-05-07 16:42 | 65.66248 | -18.42299 | 10758 ft | 326 kts | 203° |
| 2026-05-07 16:42 | 65.64050 | -18.43699 | 11634 ft | 330 kts | 190° |
| 2026-05-07 16:42 | 65.61775 | -18.44883 | 12415 ft | 337 kts | 193° |
| 2026-05-07 16:42 | 65.59478 | -18.46171 | 13283 ft | 341 kts | 193° |
| 2026-05-07 16:43 | 65.57152 | -18.47502 | 14068 ft | 346 kts | 194° |
| 2026-05-07 16:43 | 65.55561 | -18.48423 | 14560 ft | 349 kts | 194° |
| 2026-05-07 16:43 | 65.53182 | -18.49808 | 15275 ft | 353 kts | 194° |
| 2026-05-07 16:43 | 65.50746 | -18.51226 | 15965 ft | 358 kts | 194° |
| 2026-05-07 16:44 | 65.48309 | -18.52643 | 16659 ft | 362 kts | 194° |
| 2026-05-07 16:44 | 65.45813 | -18.54092 | 17344 ft | 366 kts | 194° |
| 2026-05-07 16:44 | 65.43322 | -18.55536 | 18027 ft | 370 kts | 194° |
| 2026-05-07 16:44 | 65.40799 | -18.56993 | 18639 ft | 375 kts | 194° |
| 2026-05-07 16:45 | 65.38251 | -18.58464 | 19205 ft | 378 kts | 194° |
| 2026-05-07 16:45 | 65.35679 | -18.59945 | 19763 ft | 382 kts | 194° |
| 2026-05-07 16:45 | 65.33047 | -18.61458 | 20301 ft | 386 kts | 194° |
| 2026-05-07 16:45 | 65.30437 | -18.62955 | 20580 ft | 396 kts | 194° |
| 2026-05-07 16:46 | 65.27717 | -18.64511 | 21229 ft | 395 kts | 194° |
| 2026-05-07 16:46 | 65.25035 | -18.66043 | 21779 ft | 399 kts | 194° |
| 2026-05-07 16:46 | 65.22320 | -18.67591 | 22276 ft | 402 kts | 194° |
| 2026-05-07 16:46 | 65.19636 | -18.69518 | 22746 ft | 404 kts | 207° |
| 2026-05-07 16:47 | 65.17307 | -18.73184 | 23274 ft | 402 kts | 224° |
| 2026-05-07 16:47 | 65.15211 | -18.77633 | 23727 ft | 406 kts | 223° |
| 2026-05-07 16:47 | 65.13054 | -18.82017 | 24112 ft | 410 kts | 223° |
| 2026-05-07 16:47 | 65.10861 | -18.86414 | 24248 ft | 413 kts | 222° |
| 2026-05-07 16:48 | 65.08663 | -18.90781 | 24242 ft | 412 kts | 222° |
| 2026-05-07 16:48 | 65.06464 | -18.95126 | 24239 ft | 411 kts | 222° |
| 2026-05-07 16:48 | 65.04267 | -18.99454 | 24245 ft | 412 kts | 222° |
| 2026-05-07 16:48 | 65.02032 | -19.03844 | 24238 ft | 423 kts | 221° |
| 2026-05-07 16:49 | 64.99742 | -19.08330 | 24231 ft | 433 kts | 221° |
| 2026-05-07 16:49 | 64.97429 | -19.12852 | 24225 ft | 442 kts | 221° |
| 2026-05-07 16:49 | 64.94969 | -19.17649 | 24194 ft | 449 kts | 221° |
| 2026-05-07 16:49 | 64.92561 | -19.22334 | 24216 ft | 449 kts | 221° |
| 2026-05-07 16:50 | 64.90146 | -19.27020 | 24231 ft | 450 kts | 221° |
| 2026-05-07 16:50 | 64.87733 | -19.31693 | 24223 ft | 450 kts | 221° |
| 2026-05-07 16:50 | 64.85294 | -19.36403 | 24224 ft | 457 kts | 221° |
| 2026-05-07 16:50 | 64.82816 | -19.41179 | 24220 ft | 464 kts | 221° |
| 2026-05-07 16:51 | 64.80304 | -19.46006 | 24216 ft | 468 kts | 221° |
| 2026-05-07 16:51 | 64.77781 | -19.50844 | 24221 ft | 469 kts | 221° |
| 2026-05-07 16:51 | 64.75253 | -19.55677 | 24219 ft | 469 kts | 221° |
| 2026-05-07 16:51 | 64.72725 | -19.60500 | 24224 ft | 469 kts | 221° |
| 2026-05-07 16:52 | 64.70193 | -19.65318 | 24225 ft | 469 kts | 221° |
| 2026-05-07 16:52 | 64.67662 | -19.70122 | 24214 ft | 469 kts | 221° |
| 2026-05-07 16:52 | 64.65130 | -19.74917 | 24198 ft | 469 kts | 221° |
| 2026-05-07 16:52 | 64.62596 | -19.79704 | 24207 ft | 468 kts | 221° |
| 2026-05-07 16:53 | 64.60063 | -19.84476 | 24212 ft | 468 kts | 221° |
| 2026-05-07 16:53 | 64.57527 | -19.89242 | 24217 ft | 469 kts | 221° |
| 2026-05-07 16:53 | 64.54988 | -19.94001 | 24215 ft | 469 kts | 221° |
| 2026-05-07 16:53 | 64.52451 | -19.98746 | 24214 ft | 469 kts | 221° |
| 2026-05-07 16:54 | 64.49909 | -20.03489 | 24208 ft | 469 kts | 221° |
| 2026-05-07 16:54 | 64.47364 | -20.08224 | 24209 ft | 469 kts | 220° |
| 2026-05-07 16:54 | 64.44820 | -20.12942 | 24208 ft | 469 kts | 220° |
| 2026-05-07 16:54 | 64.42272 | -20.17662 | 24210 ft | 469 kts | 220° |
| 2026-05-07 16:55 | 64.39725 | -20.22368 | 24212 ft | 469 kts | 220° |
| 2026-05-07 16:55 | 64.37176 | -20.27066 | 24210 ft | 469 kts | 220° |
| 2026-05-07 16:55 | 64.34626 | -20.31757 | 24184 ft | 469 kts | 220° |
| 2026-05-07 16:55 | 64.32076 | -20.36436 | 24193 ft | 468 kts | 220° |
| 2026-05-07 16:56 | 64.29523 | -20.41112 | 24191 ft | 468 kts | 220° |
| 2026-05-07 16:56 | 64.26979 | -20.45781 | 24197 ft | 468 kts | 220° |
| 2026-05-07 16:56 | 64.21898 | -20.55157 | 24198 ft | 468 kts | 220° |
| 2026-05-07 16:57 | 64.19356 | -20.59834 | 24197 ft | 468 kts | 220° |
| 2026-05-07 16:57 | 64.16813 | -20.64501 | 24198 ft | 468 kts | 220° |
| 2026-05-07 16:57 | 64.14268 | -20.69162 | 24202 ft | 468 kts | 220° |
| 2026-05-07 16:57 | 64.11722 | -20.73812 | 24189 ft | 468 kts | 220° |
| 2026-05-07 16:58 | 64.09173 | -20.78455 | 23826 ft | 466 kts | 220° |
| 2026-05-07 16:58 | 64.06650 | -20.83042 | 23173 ft | 461 kts | 220° |
| 2026-05-07 16:58 | 64.04148 | -20.87578 | 22485 ft | 456 kts | 220° |
| 2026-05-07 16:58 | 64.01674 | -20.92051 | 21830 ft | 451 kts | 220° |
| 2026-05-07 16:59 | 63.99244 | -20.96435 | 21181 ft | 439 kts | 220° |
| 2026-05-07 16:59 | 63.96884 | -21.00686 | 20556 ft | 426 kts | 220° |
| 2026-05-07 16:59 | 63.94584 | -21.04818 | 19742 ft | 418 kts | 220° |
| 2026-05-07 16:59 | 63.92313 | -21.08891 | 18871 ft | 412 kts | 220° |
| 2026-05-07 17:00 | 63.90126 | -21.13026 | 17945 ft | 404 kts | 229° |
| 2026-05-07 17:00 | 63.88564 | -21.18072 | 17382 ft | 383 kts | 246° |
| 2026-05-07 17:00 | 63.87805 | -21.23735 | 16641 ft | 369 kts | 264° |
| 2026-05-07 17:00 | 63.87456 | -21.29513 | 15912 ft | 362 kts | 263° |
| 2026-05-07 17:01 | 63.87064 | -21.35101 | 15226 ft | 356 kts | 263° |
| 2026-05-07 17:01 | 63.86651 | -21.40677 | 14533 ft | 351 kts | 263° |
| 2026-05-07 17:01 | 63.86235 | -21.46098 | 13844 ft | 346 kts | 262° |
| 2026-05-07 17:01 | 63.85816 | -21.51431 | 13091 ft | 341 kts | 262° |
| 2026-05-07 17:02 | 63.85400 | -21.56625 | 12350 ft | 337 kts | 262° |
| 2026-05-07 17:02 | 63.84976 | -21.61900 | 11613 ft | 334 kts | 262° |
| 2026-05-07 17:02 | 63.84557 | -21.67073 | 10821 ft | 333 kts | 261° |
| 2026-05-07 17:02 | 63.84136 | -21.72235 | 10040 ft | 333 kts | 261° |
| 2026-05-07 17:03 | 63.83714 | -21.77388 | 9168 ft | 332 kts | 261° |
| 2026-05-07 17:03 | 63.83285 | -21.82602 | 8269 ft | 332 kts | 261° |
| 2026-05-07 17:03 | 63.82860 | -21.87749 | 7517 ft | 330 kts | 261° |
| 2026-05-07 17:03 | 63.82443 | -21.92756 | 7095 ft | 316 kts | 261° |
| 2026-05-07 17:04 | 63.82042 | -21.97559 | 6618 ft | 306 kts | 261° |
| 2026-05-07 17:04 | 63.81650 | -22.02235 | 6127 ft | 299 kts | 261° |
| 2026-05-07 17:04 | 63.81267 | -22.06783 | 5715 ft | 289 kts | 261° |
| 2026-05-07 17:04 | 63.80837 | -22.11158 | 5310 ft | 282 kts | 253° |
| 2026-05-07 17:05 | 63.80209 | -22.15266 | 4929 ft | 273 kts | 253° |
| 2026-05-07 17:05 | 63.79599 | -22.19270 | 4682 ft | 261 kts | 253° |
| 2026-05-07 17:05 | 63.79025 | -22.23056 | 4463 ft | 248 kts | 253° |
| 2026-05-07 17:05 | 63.78483 | -22.26636 | 4291 ft | 234 kts | 253° |
| 2026-05-07 17:06 | 63.77963 | -22.30055 | 4035 ft | 228 kts | 255° |
| 2026-05-07 17:06 | 63.77449 | -22.33453 | 3780 ft | 228 kts | 254° |
| 2026-05-07 17:06 | 63.77005 | -22.36859 | 3491 ft | 223 kts | 268° |
| 2026-05-07 17:06 | 63.77229 | -22.40145 | 3142 ft | 209 kts | 297° |
| 2026-05-07 17:07 | 63.77959 | -22.42938 | 3019 ft | 206 kts | 307° |
| 2026-05-07 17:07 | 63.78730 | -22.45654 | 2813 ft | 205 kts | 306° |
| 2026-05-07 17:07 | 63.79487 | -22.48359 | 2555 ft | 203 kts | 306° |
| 2026-05-07 17:07 | 63.80236 | -22.51050 | 2310 ft | 201 kts | 306° |
| 2026-05-07 17:08 | 63.80843 | -22.53897 | 2031 ft | 200 kts | 284° |
| 2026-05-07 17:08 | 63.80801 | -22.56964 | 1949 ft | 185 kts | 277° |
| 2026-05-07 17:08 | 63.81212 | -22.59466 | 1866 ft | 164 kts | 321° |
| 2026-05-07 17:08 | 63.82182 | -22.60414 | 1871 ft | 150 kts | 356° |
| 2026-05-07 17:09 | 63.83232 | -22.60468 | 2083 ft | 154 kts | 358° |
| 2026-05-07 17:09 | 63.84310 | -22.60463 | 1667 ft | 155 kts | 360° |
| 2026-05-07 17:09 | 63.85020 | -22.60426 | 1506 ft | 146 kts | 2° |
| 2026-05-07 17:09 | 63.85994 | -22.60520 | 1341 ft | 139 kts | 359° |
| 2026-05-07 17:10 | 63.86953 | -22.60638 | 1113 ft | 137 kts | 0° |
| 2026-05-07 17:10 | 63.87908 | -22.60635 | 1150 ft | 135 kts | 2° |
| 2026-05-07 17:10 | 63.88848 | -22.60573 | 1231 ft | 132 kts | 1° |
| 2026-05-07 17:10 | 63.89748 | -22.60509 | 1182 ft | 127 kts | 1° |
| 2026-05-07 17:11 | 63.90605 | -22.60533 | 1117 ft | 120 kts | 0° |
| 2026-05-07 17:11 | 63.91433 | -22.60571 | 1005 ft | 118 kts | 2° |
| 2026-05-07 17:11 | 63.92251 | -22.60562 | 882 ft | 118 kts | 1° |
| 2026-05-07 17:11 | 63.93077 | -22.60563 | 743 ft | 119 kts | 2° |
| 2026-05-07 17:12 | 63.93900 | -22.60554 | 586 ft | 119 kts | 1° |
| 2026-05-07 17:12 | 63.94719 | -22.60568 | 489 ft | 117 kts | 2° |
| 2026-05-07 17:12 | 63.95535 | -22.60565 | 352 ft | 118 kts | 0° |
| 2026-05-07 17:12 | 63.96348 | -22.60560 | 199 ft | 117 kts | 1° |
| 2026-05-07 17:13 | 63.97090 | -22.60551 | 165 ft | 77 kts | 0° |
| 2026-05-07 17:13 | 63.97462 | -22.60557 | 175 ft | 36 kts | 0° |
| 2026-05-07 17:13 | 63.97706 | -22.60544 | 175 ft | 31 kts | 2° |
| 2026-05-07 17:13 | 63.97933 | -22.60540 | 173 ft | 22 kts | 356° |
| 2026-05-07 17:14 | 63.98085 | -22.60592 | 174 ft | 18 kts | 343° |
| 2026-05-07 17:14 | 63.98222 | -22.60751 | 170 ft | 23 kts | 329° |
| 2026-05-07 17:14 | 63.98364 | -22.60931 | 168 ft | 16 kts | 341° |
| 2026-05-07 17:14 | 63.98495 | -22.60938 | 172 ft | 21 kts | 358° |
| 2026-05-07 17:15 | 63.98652 | -22.60939 | 170 ft | 25 kts | 0° |
| 2026-05-07 17:15 | 63.98831 | -22.60937 | 169 ft | 27 kts | 360° |
| 2026-05-07 17:15 | 63.99008 | -22.60937 | 173 ft | 20 kts | 359° |
| 2026-05-07 17:15 | 63.99125 | -22.60936 | 168 ft | 15 kts | 0° |
| 2026-05-07 17:16 | 63.99173 | -22.61066 | 164 ft | 14 kts | 270° |
| 2026-05-07 17:16 | 63.99174 | -22.61323 | 158 ft | 9 kts | 270° |
| 2026-05-07 17:16 | 63.99197 | -22.61426 | 155 ft | 3 kts | 350° |
| 2026-05-07 17:16 | 63.99239 | -22.61427 | 153 ft | 9 kts | 358° |
| 2026-05-07 17:17 | 63.99333 | -22.61430 | 149 ft | 18 kts | 359° |
| 2026-05-07 17:17 | 63.99444 | -22.61431 | 145 ft | 9 kts | 349° |
| 2026-05-07 17:17 | 63.99470 | -22.61579 | 145 ft | 5 kts | 270° |
| 2026-05-07 17:17 | 63.99465 | -22.61595 | 145 ft | 2 kts | 218° |
| 2026-05-07 17:18 | 63.99436 | -22.61610 | 143 ft | 3 kts | 184° |
| 2026-05-07 17:18 | 63.99417 | -22.61610 | 146 ft | 3 kts | 179° |
| 2026-05-07 17:18 | 63.99412 | -22.61610 | 145 ft | 1 kts | 179° |
| 2026-05-07 17:18 | 63.99408 | -22.61610 | 145 ft | 0 kts | 179° |
| 2026-05-07 17:19 | 63.99407 | -22.61610 | 145 ft | 0 kts | 179° |
| 2026-05-07 17:19 | 63.99406 | -22.61610 | 145 ft | 0 kts | 179° |